createdAt,value
2018-03-21T00:01:15.209Z,23.57
2018-03-21T00:03:50.930Z,22.47
2018-03-21T00:06:25.143Z,22.47
2018-03-21T00:09:00.186Z,25.07
2018-03-21T00:11:34.540Z,28.27
2018-03-21T00:14:08.698Z,28.87
2018-03-21T00:16:42.841Z,26.83
2018-03-21T00:19:17.307Z,28.83
2018-03-21T00:21:51.304Z,24.63
2018-03-21T00:24:25.293Z,31.50
2018-03-21T00:26:59.734Z,26.63
2018-03-21T00:29:34.156Z,26.83
2018-03-21T00:32:08.018Z,27.23
2018-03-21T00:34:42.114Z,23.53
2018-03-21T00:37:17.063Z,22.27
2018-03-21T00:39:51.566Z,26.50
2018-03-21T00:42:26.410Z,23.97
2018-03-21T00:45:01.183Z,21.67
2018-03-21T00:47:36.477Z,21.90
2018-03-21T00:50:10.839Z,21.97
2018-03-21T00:52:45.303Z,21.13
2018-03-21T00:55:19.779Z,23.13
2018-03-21T00:57:54.275Z,21.53
2018-03-21T01:00:28.961Z,17.57
2018-03-21T01:03:03.650Z,20.67
2018-03-21T01:05:37.653Z,23.60
2018-03-21T01:08:11.419Z,19.80
2018-03-21T01:10:45.686Z,19.30
2018-03-21T01:13:19.781Z,18.47
2018-03-21T01:15:53.694Z,17.47
2018-03-21T01:18:28.520Z,20.03
2018-03-21T01:21:03.565Z,23.23
2018-03-21T01:23:38.150Z,19.03
2018-03-21T01:26:12.008Z,20.73
2018-03-21T01:28:47.210Z,19.73
2018-03-21T01:31:21.650Z,18.20
2018-03-21T01:33:55.697Z,16.97
2018-03-21T01:36:30.045Z,14.53
2018-03-21T01:39:05.185Z,17.30
2018-03-21T01:41:39.838Z,16.57
2018-03-21T01:44:14.733Z,18.63
2018-03-21T01:46:50.215Z,15.33
2018-03-21T01:49:24.328Z,18.90
2018-03-21T01:51:59.365Z,17.53
2018-03-21T01:54:34.177Z,23.97
2018-03-21T01:57:08.868Z,19.00
2018-03-21T01:59:44.536Z,18.80
2018-03-21T02:02:18.899Z,18.77
2018-03-21T02:04:53.644Z,19.27
2018-03-21T02:07:27.642Z,21.60
2018-03-21T02:10:01.706Z,19.23
2018-03-21T02:12:36.906Z,20.07
2018-03-21T02:15:10.581Z,18.77
2018-03-21T02:17:44.583Z,18.93
2018-03-21T02:20:19.182Z,19.23
2018-03-21T02:22:53.222Z,17.40
2018-03-21T02:25:27.874Z,17.47
2018-03-21T02:28:02.583Z,18.70
2018-03-21T02:30:36.685Z,19.50
2018-03-21T02:33:11.219Z,18.73
2018-03-21T02:35:45.021Z,20.70
2018-03-21T02:38:19.163Z,15.00
2018-03-21T02:40:52.769Z,16.43
2018-03-21T02:43:26.886Z,17.53
2018-03-21T02:46:00.746Z,15.83
2018-03-21T02:48:36.497Z,16.50
2018-03-21T02:51:11.034Z,17.80
2018-03-21T02:53:45.570Z,18.67
2018-03-21T02:56:19.413Z,20.37
2018-03-21T02:58:53.522Z,21.67
2018-03-21T03:01:27.840Z,23.73
2018-03-21T03:04:02.211Z,26.47
2018-03-21T03:06:36.911Z,24.80
2018-03-21T03:09:11.350Z,22.80
2018-03-21T03:11:46.770Z,23.70
2018-03-21T03:14:21.316Z,19.53
2018-03-21T03:16:55.905Z,19.47
2018-03-21T03:19:31.694Z,18.70
2018-03-21T03:22:06.692Z,21.87
2018-03-21T03:24:41.055Z,17.40
2018-03-21T03:27:14.726Z,18.33
2018-03-21T03:29:49.507Z,15.20
2018-03-21T03:32:23.384Z,15.33
2018-03-21T03:34:57.184Z,20.73
2018-03-21T03:37:30.936Z,18.03
2018-03-21T03:40:05.128Z,18.17
2018-03-21T03:42:39.899Z,16.90
2018-03-21T03:45:14.635Z,16.93
2018-03-21T03:47:49.206Z,19.93
2018-03-21T03:50:23.932Z,20.70
2018-03-21T03:52:57.682Z,20.33
2018-03-21T03:55:32.957Z,19.23
2018-03-21T03:58:07.283Z,21.70
2018-03-21T04:00:41.894Z,23.73
2018-03-21T04:03:17.123Z,20.43
2018-03-21T04:05:52.578Z,21.63
2018-03-21T04:08:27.412Z,21.57
2018-03-21T04:11:01.161Z,20.83
2018-03-21T04:13:35.765Z,21.63
2018-03-21T04:16:10.617Z,21.60
2018-03-21T04:18:45.273Z,21.10
2018-03-21T04:21:20.846Z,21.00
2018-03-21T04:23:56.193Z,23.63
2018-03-21T04:26:29.973Z,19.40
2018-03-21T04:29:05.225Z,19.60
2018-03-21T04:31:40.466Z,20.23
2018-03-21T04:34:14.662Z,22.20
2018-03-21T04:36:49.026Z,21.70
2018-03-21T04:39:23.436Z,19.47
2018-03-21T04:41:57.541Z,18.87
2018-03-21T04:44:32.170Z,21.63
2018-03-21T04:47:07.599Z,17.97
2018-03-21T04:49:42.851Z,21.73
2018-03-21T04:52:17.372Z,18.73
2018-03-21T04:54:52.005Z,19.90
2018-03-21T04:57:26.303Z,21.87
2018-03-21T05:00:00.944Z,19.00
2018-03-21T05:02:35.155Z,17.77
2018-03-21T05:05:09.186Z,20.70
2018-03-21T05:07:43.375Z,19.73
2018-03-21T05:10:18.585Z,15.73
2018-03-21T05:12:52.641Z,14.37
2018-03-21T05:15:27.348Z,16.73
2018-03-21T05:18:02.380Z,16.97
2018-03-21T05:20:36.678Z,18.00
2018-03-21T05:23:11.175Z,16.30
2018-03-21T05:25:45.199Z,18.90
2018-03-21T05:28:19.966Z,18.17
2018-03-21T05:30:54.481Z,15.90
2018-03-21T05:33:29.014Z,18.13
2018-03-21T05:36:03.739Z,13.20
2018-03-21T05:38:37.690Z,17.07
2018-03-21T05:41:12.130Z,18.63
2018-03-21T05:43:46.117Z,19.90
2018-03-21T05:46:20.157Z,19.73
2018-03-21T05:48:54.450Z,17.37
2018-03-21T05:51:29.839Z,18.93
2018-03-21T05:54:05.493Z,17.90
2018-03-21T05:56:39.725Z,15.90
2018-03-21T05:59:14.436Z,13.93
2018-03-21T06:01:49.894Z,17.00
2018-03-21T06:04:23.783Z,14.63
2018-03-21T06:06:58.677Z,14.70
2018-03-21T06:09:32.707Z,14.13
2018-03-21T06:12:07.130Z,19.40
2018-03-21T06:14:41.332Z,20.50
2018-03-21T06:17:15.358Z,18.37
2018-03-21T06:19:49.630Z,14.87
2018-03-21T06:22:23.492Z,16.80
2018-03-21T06:24:57.508Z,16.93
2018-03-21T06:27:32.145Z,13.27
2018-03-21T06:30:06.663Z,15.43
2018-03-21T06:32:40.775Z,16.53
2018-03-21T06:35:14.998Z,18.00
2018-03-21T06:37:50.225Z,19.03
2018-03-21T06:40:24.966Z,19.07
2018-03-21T06:42:59.678Z,13.30
2018-03-21T06:45:33.813Z,17.70
2018-03-21T06:48:08.227Z,26.07
2018-03-21T06:50:42.027Z,17.70
2018-03-21T06:53:16.502Z,14.60
2018-03-21T06:55:50.501Z,18.43
2018-03-21T06:58:24.318Z,10.77
2018-03-21T07:00:59.076Z,16.27
2018-03-21T07:03:33.059Z,12.43
2018-03-21T07:06:07.082Z,10.37
2018-03-21T07:08:40.882Z,9.70
2018-03-21T07:11:14.600Z,11.40
2018-03-21T07:14:00.493Z,12.87
2018-03-21T07:16:46.632Z,11.03
2018-03-21T07:19:21.174Z,11.17
2018-03-21T07:21:55.774Z,10.37
2018-03-21T07:24:30.190Z,8.40
2018-03-21T07:27:05.098Z,11.20
2018-03-21T07:29:40.407Z,8.50
2018-03-21T07:32:14.648Z,11.07
2018-03-21T07:34:49.049Z,13.20
2018-03-21T07:37:23.021Z,11.43
2018-03-21T07:39:56.840Z,15.10
2018-03-21T07:42:32.433Z,12.00
2018-03-21T07:45:06.475Z,12.67
2018-03-21T07:47:40.229Z,11.47
2018-03-21T07:50:14.066Z,6.80
2018-03-21T07:52:47.961Z,7.60
2018-03-21T07:55:23.255Z,11.30
2018-03-21T07:57:57.274Z,13.50
2018-03-21T08:00:31.793Z,7.43
2018-03-21T08:03:06.049Z,17.17
2018-03-21T08:05:40.473Z,12.67
2018-03-21T08:08:14.456Z,9.00
2018-03-21T08:10:48.299Z,10.33
2018-03-21T08:13:22.400Z,10.10
2018-03-21T08:15:56.816Z,12.00
2018-03-21T08:18:31.342Z,12.03
2018-03-21T08:21:05.459Z,15.27
2018-03-21T08:23:40.597Z,9.43
2018-03-21T08:26:14.705Z,8.37
2018-03-21T08:28:48.583Z,15.20
2018-03-21T08:31:22.167Z,10.27
2018-03-21T08:33:55.936Z,8.40
2018-03-21T08:36:29.718Z,12.67
2018-03-21T08:39:03.565Z,9.33
2018-03-21T08:41:37.223Z,9.37
2018-03-21T08:44:11.157Z,9.57
2018-03-21T08:46:45.711Z,8.13
2018-03-21T08:49:19.779Z,15.30
2018-03-21T08:51:54.218Z,10.33
2018-03-21T08:54:29.625Z,7.47
2018-03-21T08:57:03.778Z,10.40
2018-03-21T08:59:38.182Z,11.57
2018-03-21T09:02:12.166Z,7.33
2018-03-21T09:04:46.800Z,9.37
2018-03-21T09:07:20.820Z,9.13
2018-03-21T09:09:55.037Z,7.20
2018-03-21T09:12:29.498Z,6.07
2018-03-21T09:15:03.301Z,12.83
2018-03-21T09:17:37.109Z,6.53
2018-03-21T09:20:10.859Z,10.17
2018-03-21T09:22:44.585Z,9.13
2018-03-21T09:25:18.453Z,9.93
2018-03-21T09:27:52.197Z,8.20
2018-03-21T09:30:26.991Z,6.10
2018-03-21T09:33:00.778Z,7.23
2018-03-21T09:35:35.198Z,7.63
2018-03-21T09:38:09.044Z,6.47
2018-03-21T09:40:43.682Z,7.63
2018-03-21T09:43:18.469Z,6.87
2018-03-21T09:45:52.460Z,6.37
2018-03-21T09:48:26.205Z,5.30
2018-03-21T09:51:00.059Z,7.03
2018-03-21T09:53:35.422Z,8.80
2018-03-21T09:56:09.413Z,5.07
2018-03-21T09:58:43.221Z,6.13
2018-03-21T10:01:18.121Z,6.60
2018-03-21T10:03:53.407Z,4.83
2018-03-21T10:06:27.472Z,6.20
2018-03-21T10:09:01.762Z,5.03
2018-03-21T10:11:37.725Z,46.30
2018-03-21T10:14:13.101Z,15.50
2018-03-21T10:16:49.111Z,26.33
2018-03-21T10:19:24.974Z,31.57
2018-03-21T10:22:01.267Z,65.27
2018-03-21T10:24:36.718Z,60.70
2018-03-21T10:27:11.830Z,28.33
2018-03-21T10:29:47.612Z,17.23
2018-03-21T10:32:23.689Z,14.43
2018-03-21T10:34:59.409Z,5.90
2018-03-21T10:37:35.342Z,10.53
2018-03-21T10:40:11.109Z,8.47
2018-03-21T10:42:47.258Z,4.20
2018-03-21T10:45:23.094Z,5.07
2018-03-21T10:47:58.816Z,4.00
2018-03-21T10:50:34.628Z,4.60
2018-03-21T10:53:10.379Z,5.57
2018-03-21T10:55:46.154Z,3.97
2018-03-21T10:58:22.067Z,3.67
2018-03-21T11:00:56.415Z,5.77
2018-03-21T11:03:31.246Z,2.30
2018-03-21T11:06:05.324Z,3.70
2018-03-21T11:08:39.042Z,5.23
2018-03-21T11:11:13.619Z,3.23
2018-03-21T11:13:47.786Z,3.40
2018-03-21T11:16:22.970Z,3.93
2018-03-21T11:18:57.221Z,3.83
2018-03-21T11:21:31.746Z,3.40
2018-03-21T11:24:05.648Z,3.40
2018-03-21T11:26:40.405Z,3.13
2018-03-21T11:29:14.277Z,3.23
2018-03-21T11:31:48.659Z,3.43
2018-03-21T11:34:22.835Z,3.10
2018-03-21T11:36:57.314Z,3.73
2018-03-21T11:39:31.619Z,2.70
2018-03-21T11:42:06.188Z,3.27
2018-03-21T11:44:39.924Z,3.93
2018-03-21T11:47:13.658Z,2.90
2018-03-21T11:49:47.801Z,3.63
2018-03-21T11:52:22.374Z,3.70
2018-03-21T11:54:57.225Z,5.03
2018-03-21T11:57:31.039Z,3.50
2018-03-21T12:00:04.934Z,3.23
2018-03-21T12:02:38.537Z,4.73
2018-03-21T12:05:12.402Z,5.27
2018-03-21T12:07:47.102Z,2.57
2018-03-21T12:10:22.033Z,2.60
2018-03-21T12:12:56.458Z,5.03
2018-03-21T12:15:31.089Z,4.07
2018-03-21T12:18:05.025Z,2.93
2018-03-21T12:20:39.107Z,5.10
2018-03-21T12:23:13.732Z,3.17
2018-03-21T12:25:48.444Z,2.77
2018-03-21T12:28:22.352Z,2.53
2018-03-21T12:30:56.581Z,3.60
2018-03-21T12:33:30.803Z,2.10
2018-03-21T12:36:04.652Z,2.30
2018-03-21T12:38:39.306Z,1.97
2018-03-21T12:41:13.269Z,2.50
2018-03-21T12:43:46.991Z,2.47
2018-03-21T12:46:21.606Z,2.70
2018-03-21T12:48:55.330Z,3.40
2018-03-21T12:51:29.217Z,3.50
2018-03-21T12:54:04.583Z,7.10
2018-03-21T12:56:38.565Z,3.37
2018-03-21T12:59:12.268Z,2.60
2018-03-21T13:01:46.310Z,2.50
2018-03-21T13:04:20.003Z,1.80
2018-03-21T13:06:54.269Z,1.70
2018-03-21T13:09:28.101Z,2.67
2018-03-21T13:12:02.331Z,3.80
2018-03-21T13:14:37.078Z,4.57
2018-03-21T13:17:11.172Z,7.17
2018-03-21T13:19:44.964Z,4.13
2018-03-21T13:22:19.252Z,4.13
2018-03-21T13:24:53.665Z,5.10
2018-03-21T13:27:27.510Z,3.10
2018-03-21T13:30:01.216Z,6.50
2018-03-21T13:32:34.974Z,3.47
2018-03-21T13:35:09.604Z,4.30
2018-03-21T13:37:43.618Z,3.40
2018-03-21T13:40:18.950Z,3.80
2018-03-21T13:42:52.994Z,4.40
2018-03-21T13:45:26.632Z,5.67
2018-03-21T13:48:00.402Z,6.13
2018-03-21T13:50:34.182Z,5.83
2018-03-21T13:53:08.809Z,4.83
2018-03-21T13:55:42.638Z,5.63
2018-03-21T13:58:16.482Z,2.53
2018-03-21T14:00:50.917Z,5.23
2018-03-21T14:03:25.772Z,5.13
2018-03-21T14:05:59.493Z,3.40
2018-03-21T14:08:33.270Z,3.50
2018-03-21T14:11:07.077Z,3.27
2018-03-21T14:13:40.898Z,3.07
2018-03-21T14:16:14.569Z,3.47
2018-03-21T14:18:48.846Z,2.80
2018-03-21T14:21:23.164Z,5.57
2018-03-21T14:23:58.345Z,4.87
2018-03-21T14:26:32.423Z,2.53
2018-03-21T14:29:06.346Z,3.90
2018-03-21T14:31:40.087Z,2.83
2018-03-21T14:34:14.034Z,4.37
2018-03-21T14:36:47.797Z,4.33
2018-03-21T14:39:21.825Z,3.83
2018-03-21T14:41:55.625Z,5.20
2018-03-21T14:44:29.606Z,5.20
2018-03-21T14:47:04.006Z,3.83
2018-03-21T14:49:38.090Z,7.47
2018-03-21T14:52:12.699Z,4.53
2018-03-21T14:54:47.146Z,3.47
2018-03-21T14:57:21.343Z,8.17
2018-03-21T14:59:55.113Z,6.67
2018-03-21T15:02:30.537Z,5.50
2018-03-21T15:05:05.514Z,5.10
2018-03-21T15:07:40.221Z,3.97
2018-03-21T15:10:14.406Z,4.37
2018-03-21T15:12:48.863Z,4.03
2018-03-21T15:15:23.174Z,4.23
2018-03-21T15:17:57.393Z,4.47
2018-03-21T15:20:31.310Z,4.63
2018-03-21T15:23:06.670Z,6.90
2018-03-21T15:25:41.163Z,3.70
2018-03-21T15:28:16.464Z,4.37
2018-03-21T15:30:51.537Z,4.57
2018-03-21T15:33:26.441Z,3.57
2018-03-21T15:36:00.578Z,8.70
2018-03-21T15:38:35.006Z,9.63
2018-03-21T15:41:09.941Z,5.63
2018-03-21T15:43:44.641Z,4.17
2018-03-21T15:46:18.655Z,4.07
2018-03-21T15:48:53.061Z,4.50
2018-03-21T15:51:27.003Z,3.53
2018-03-21T15:54:01.477Z,4.37
2018-03-21T15:56:36.294Z,3.70
2018-03-21T15:59:11.033Z,4.73
2018-03-21T16:01:45.160Z,3.57
2018-03-21T16:04:19.508Z,3.23
2018-03-21T16:06:53.424Z,7.73
2018-03-21T16:09:27.831Z,8.23
2018-03-21T16:12:01.516Z,7.10
2018-03-21T16:14:35.208Z,4.27
2018-03-21T16:17:09.724Z,6.43
2018-03-21T16:19:43.567Z,3.17
2018-03-21T16:22:17.581Z,4.80
2018-03-21T16:24:52.117Z,11.27
2018-03-21T16:27:26.022Z,6.30
2018-03-21T16:30:00.648Z,4.67
2018-03-21T16:32:34.482Z,5.53
2018-03-21T16:35:08.272Z,4.03
2018-03-21T16:37:43.054Z,3.90
2018-03-21T16:40:16.866Z,4.60
2018-03-21T16:42:50.748Z,4.00
2018-03-21T16:45:25.280Z,3.30
2018-03-21T16:47:59.429Z,8.30
2018-03-21T16:50:34.663Z,5.83
2018-03-21T16:53:08.833Z,6.93
2018-03-21T16:55:43.352Z,5.40
2018-03-21T16:58:18.049Z,8.13
2018-03-21T17:00:52.157Z,5.40
2018-03-21T17:03:26.308Z,3.07
2018-03-21T17:06:01.471Z,9.40
2018-03-21T17:08:36.302Z,3.87
2018-03-21T17:11:10.090Z,3.90
2018-03-21T17:13:43.986Z,2.90
2018-03-21T17:16:18.593Z,7.10
2018-03-21T17:18:52.884Z,7.20
2018-03-21T17:21:27.279Z,5.70
2018-03-21T17:24:01.030Z,5.13
2018-03-21T17:26:34.806Z,6.07
2018-03-21T17:29:08.597Z,3.93
2018-03-21T17:31:42.997Z,4.90
2018-03-21T17:34:16.923Z,7.60
2018-03-21T17:36:50.682Z,6.33
2018-03-21T17:39:24.938Z,13.23
2018-03-21T17:41:59.358Z,9.23
2018-03-21T17:44:34.054Z,5.50
2018-03-21T17:47:08.020Z,5.67
2018-03-21T17:49:41.769Z,10.50
2018-03-21T17:52:15.518Z,7.23
2018-03-21T17:54:49.568Z,5.20
2018-03-21T17:57:23.609Z,6.03
2018-03-21T17:59:57.745Z,5.67
2018-03-21T18:02:32.085Z,5.63
2018-03-21T18:05:05.888Z,6.27
2018-03-21T18:07:40.374Z,5.93
2018-03-21T18:10:14.362Z,7.07
2018-03-21T18:12:48.804Z,5.37
2018-03-21T18:15:22.965Z,7.43
2018-03-21T18:17:57.537Z,7.60
2018-03-21T18:20:31.326Z,5.90
2018-03-21T18:23:05.329Z,13.53
2018-03-21T18:25:40.228Z,7.23
2018-03-21T18:28:14.958Z,6.87
2018-03-21T18:30:48.798Z,10.40
2018-03-21T18:33:23.452Z,6.20
2018-03-21T18:35:57.657Z,8.53
2018-03-21T18:38:32.116Z,6.00
2018-03-21T18:41:05.879Z,5.20
2018-03-21T18:43:39.628Z,6.10
2018-03-21T18:46:14.896Z,7.97
2018-03-21T18:48:49.217Z,10.83
2018-03-21T18:51:23.820Z,13.43
2018-03-21T18:53:57.753Z,9.57
2018-03-21T18:56:32.676Z,13.60
2018-03-21T18:59:07.058Z,14.73
2018-03-21T19:01:41.438Z,15.23
2018-03-21T19:04:15.331Z,13.83
2018-03-21T19:06:49.528Z,10.90
2018-03-21T19:09:23.897Z,10.63
2018-03-21T19:11:58.250Z,9.27
2018-03-21T19:14:32.485Z,13.70
2018-03-21T19:17:06.646Z,11.00
2018-03-21T19:19:40.751Z,6.90
2018-03-21T19:22:16.074Z,7.90
2018-03-21T19:24:53.137Z,11.20
2018-03-21T19:27:27.850Z,12.77
2018-03-21T19:30:42.241Z,10.70
2018-03-21T19:47:38.767Z,12.00
2018-03-21T19:50:35.002Z,17.00
2018-03-21T20:59:17.687Z,12.07
2018-03-21T23:56:28.173Z,15.93
2018-03-21T23:59:02.811Z,18.20
